createdAt,value
2018-09-10T00:02:14.341Z,7.47
2018-09-10T00:04:43.888Z,7.73
2018-09-10T00:07:15.336Z,8.00
2018-09-10T00:09:46.109Z,9.40
2018-09-10T00:12:16.596Z,7.90
2018-09-10T00:14:46.108Z,10.30
2018-09-10T00:17:15.543Z,7.87
2018-09-10T00:19:44.903Z,8.50
2018-09-10T00:22:21.021Z,11.23
2018-09-10T00:24:50.595Z,14.60
2018-09-10T00:27:20.115Z,8.97
2018-09-10T00:29:49.536Z,10.40
2018-09-10T00:32:20.917Z,8.97
2018-09-10T00:34:52.422Z,8.93
2018-09-10T00:37:22.862Z,11.63
2018-09-10T00:39:52.268Z,8.80
2018-09-10T00:42:21.719Z,10.90
2018-09-10T00:44:51.184Z,12.90
2018-09-10T00:47:20.743Z,9.33
2018-09-10T00:49:50.144Z,8.90
2018-09-10T00:52:19.548Z,8.40
2018-09-10T00:54:48.974Z,12.20
2018-09-10T00:57:18.398Z,9.87
2018-09-10T00:59:47.850Z,10.27
2018-09-10T01:02:17.291Z,12.63
2018-09-10T01:04:46.783Z,8.00
2018-09-10T01:07:16.253Z,8.73
2018-09-10T01:09:45.836Z,7.93
2018-09-10T01:12:15.257Z,9.83
2018-09-10T01:14:46.380Z,8.73
2018-09-10T01:17:15.876Z,13.73
2018-09-10T01:19:45.525Z,11.43
2018-09-10T01:22:15.019Z,9.37
2018-09-10T01:24:45.167Z,10.00
2018-09-10T01:27:14.837Z,11.43
2018-09-10T01:29:44.350Z,9.40
2018-09-10T01:32:13.795Z,10.53
2018-09-10T01:34:49.466Z,8.40
2018-09-10T01:37:19.874Z,9.37
2018-09-10T01:39:49.437Z,10.43
2018-09-10T01:42:19.390Z,10.63
2018-09-10T01:44:48.850Z,8.90
2018-09-10T01:47:18.398Z,12.97
2018-09-10T01:49:47.964Z,9.67
2018-09-10T01:52:17.448Z,11.27
2018-09-10T01:54:47.463Z,8.97
2018-09-10T01:57:17.122Z,8.60
2018-09-10T01:59:46.554Z,8.90
2018-09-10T02:02:16.286Z,11.03
2018-09-10T02:04:45.943Z,11.13
2018-09-10T02:07:15.487Z,11.10
2018-09-10T02:09:44.907Z,8.97
2018-09-10T02:12:19.709Z,12.07
2018-09-10T02:14:49.147Z,11.03
2018-09-10T02:17:18.637Z,8.53
2018-09-10T02:19:48.136Z,8.90
2018-09-10T02:22:17.620Z,9.13
2018-09-10T02:24:47.213Z,8.77
2018-09-10T02:27:17.785Z,11.90
2018-09-10T02:29:47.197Z,8.83
2018-09-10T02:32:16.690Z,9.73
2018-09-10T02:34:46.240Z,9.40
2018-09-10T02:37:15.778Z,8.90
2018-09-10T02:39:45.116Z,12.57
2018-09-10T02:42:14.594Z,9.40
2018-09-10T02:44:44.080Z,8.97
2018-09-10T02:47:13.771Z,11.10
2018-09-10T02:49:43.345Z,8.93
2018-09-10T02:52:12.802Z,10.67
2018-09-10T02:54:42.342Z,8.67
2018-09-10T02:57:11.848Z,8.93
2018-09-10T02:59:41.460Z,8.33
2018-09-10T03:02:10.972Z,10.27
2018-09-10T03:04:43.965Z,13.10
2018-09-10T03:07:15.447Z,8.50
2018-09-10T03:09:44.891Z,9.13
2018-09-10T03:12:15.880Z,8.57
2018-09-10T03:14:45.330Z,8.43
2018-09-10T03:17:14.873Z,7.30
2018-09-10T03:19:45.000Z,7.57
2018-09-10T03:22:14.545Z,8.47
2018-09-10T03:24:44.033Z,7.73
2018-09-10T03:27:13.445Z,6.43
2018-09-10T03:29:42.913Z,7.63
2018-09-10T03:32:12.411Z,8.43
2018-09-10T03:34:41.875Z,10.30
2018-09-10T03:37:11.310Z,11.17
2018-09-10T03:39:40.779Z,10.03
2018-09-10T03:42:10.262Z,8.70
2018-09-10T03:44:39.712Z,11.50
2018-09-10T03:47:09.214Z,14.23
2018-09-10T03:49:38.681Z,11.00
2018-09-10T03:52:09.209Z,9.77
2018-09-10T03:54:38.775Z,8.53
2018-09-10T03:57:08.243Z,7.83
2018-09-10T03:59:37.732Z,9.27
2018-09-10T04:02:07.169Z,10.50
2018-09-10T04:04:37.578Z,10.10
2018-09-10T04:07:07.378Z,7.67
2018-09-10T04:09:36.853Z,7.03
2018-09-10T04:12:06.439Z,11.83
2018-09-10T04:14:35.988Z,8.00
2018-09-10T04:17:05.735Z,11.67
2018-09-10T04:19:35.249Z,9.27
2018-09-10T04:22:04.676Z,7.90
2018-09-10T04:24:34.940Z,9.57
2018-09-10T04:27:04.512Z,9.03
2018-09-10T04:29:34.015Z,8.47
2018-09-10T04:32:03.599Z,11.80
2018-09-10T04:34:33.036Z,8.63
2018-09-10T04:37:02.544Z,8.80
2018-09-10T04:39:31.972Z,9.27
2018-09-10T04:42:02.507Z,7.10
2018-09-10T04:44:31.987Z,11.63
2018-09-10T04:47:02.439Z,12.60
2018-09-10T04:49:32.017Z,8.17
2018-09-10T04:52:01.337Z,7.50
2018-09-10T04:54:30.796Z,10.77
2018-09-10T04:57:02.110Z,11.93
2018-09-10T04:59:32.174Z,10.03
2018-09-10T05:02:02.634Z,8.17
2018-09-10T05:04:33.188Z,7.17
2018-09-10T05:07:02.660Z,8.33
2018-09-10T05:09:32.112Z,7.20
2018-09-10T05:12:01.549Z,14.73
2018-09-10T05:14:31.087Z,23.50
2018-09-10T05:17:02.433Z,19.40
2018-09-10T05:19:33.076Z,15.40
2018-09-10T05:22:02.779Z,8.27
2018-09-10T05:24:32.978Z,7.30
2018-09-10T05:27:02.964Z,7.67
2018-09-10T05:29:34.843Z,8.00
2018-09-10T05:32:04.397Z,7.87
2018-09-10T05:34:33.943Z,8.00
2018-09-10T05:37:03.499Z,7.53
2018-09-10T05:39:33.075Z,8.27
2018-09-10T05:42:02.491Z,8.20
2018-09-10T05:44:32.050Z,8.43
2018-09-10T05:47:01.444Z,15.97
2018-09-10T05:49:30.987Z,18.43
2018-09-10T05:52:00.525Z,8.60
2018-09-10T05:54:30.052Z,7.17
2018-09-10T05:56:59.579Z,7.57
2018-09-10T05:59:29.734Z,14.60
2018-09-10T06:01:59.210Z,11.13
2018-09-10T06:04:28.675Z,9.83
2018-09-10T06:06:58.117Z,7.67
2018-09-10T06:09:30.553Z,7.27
2018-09-10T06:11:59.980Z,14.33
2018-09-10T06:14:29.442Z,12.67
2018-09-10T06:16:58.903Z,17.83
2018-09-10T06:19:28.524Z,20.30
2018-09-10T06:21:57.962Z,15.03
2018-09-10T06:24:27.556Z,13.13
2018-09-10T06:26:57.131Z,7.50
2018-09-10T06:29:27.657Z,10.33
2018-09-10T06:31:57.159Z,8.87
2018-09-10T06:34:26.795Z,11.80
2018-09-10T06:36:56.417Z,11.17
2018-09-10T06:39:25.895Z,11.70
2018-09-10T06:41:55.393Z,9.10
2018-09-10T06:44:24.914Z,9.67
2018-09-10T06:46:54.976Z,8.37
2018-09-10T06:49:24.391Z,11.97
2018-09-10T06:51:53.909Z,10.87
2018-09-10T06:54:23.413Z,11.47
2018-09-10T06:56:52.851Z,12.03
2018-09-10T06:59:22.306Z,13.77
2018-09-10T07:01:52.818Z,13.73
2018-09-10T07:04:22.269Z,11.83
2018-09-10T07:06:51.696Z,11.83
2018-09-10T07:09:21.097Z,14.37
2018-09-10T07:11:51.607Z,10.30
2018-09-10T07:14:22.109Z,10.83
2018-09-10T07:16:51.739Z,11.63
2018-09-10T07:19:21.608Z,11.73
2018-09-10T07:21:51.262Z,13.90
2018-09-10T07:24:20.736Z,12.23
2018-09-10T07:26:50.241Z,11.47
2018-09-10T07:29:19.686Z,12.80
2018-09-10T07:31:49.216Z,11.37
2018-09-10T07:34:18.725Z,12.43
2018-09-10T07:36:48.141Z,12.13
2018-09-10T07:39:17.655Z,12.67
2018-09-10T07:41:47.183Z,14.07
2018-09-10T07:44:17.323Z,12.97
2018-09-10T07:46:46.840Z,14.17
2018-09-10T07:49:17.528Z,13.53
2018-09-10T07:51:47.003Z,13.77
2018-09-10T07:54:17.071Z,13.93
2018-09-10T07:56:47.637Z,14.33
2018-09-10T07:59:17.071Z,17.23
2018-09-10T08:01:46.595Z,14.60
2018-09-10T08:04:16.044Z,12.37
2018-09-10T08:06:46.496Z,15.23
2018-09-10T08:09:16.030Z,13.90
2018-09-10T08:11:45.410Z,12.53
2018-09-10T08:14:14.838Z,13.37
2018-09-10T08:16:44.279Z,16.00
2018-09-10T08:19:13.763Z,11.93
2018-09-10T08:21:43.249Z,14.70
2018-09-10T08:24:12.788Z,13.70
2018-09-10T08:26:42.224Z,13.67
2018-09-10T08:29:11.667Z,17.37
2018-09-10T08:31:41.172Z,14.60
2018-09-10T08:34:10.845Z,13.17
2018-09-10T08:36:40.471Z,14.77
2018-09-10T08:39:09.965Z,16.77
2018-09-10T08:41:39.533Z,21.40
2018-09-10T08:44:09.016Z,16.17
2018-09-10T08:46:39.348Z,16.23
2018-09-10T08:49:10.760Z,16.13
2018-09-10T08:51:40.320Z,14.67
2018-09-10T08:54:10.736Z,15.90
2018-09-10T08:56:40.137Z,15.57
2018-09-10T08:59:09.691Z,14.57
2018-09-10T09:01:40.071Z,12.83
2018-09-10T09:04:09.566Z,12.50
2018-09-10T09:06:39.086Z,11.53
2018-09-10T09:09:09.418Z,11.07
2018-09-10T09:11:39.019Z,12.97
2018-09-10T09:14:08.892Z,14.33
2018-09-10T09:16:38.370Z,11.93
2018-09-10T09:19:07.837Z,13.67
2018-09-10T09:21:37.275Z,11.37
2018-09-10T09:24:06.885Z,15.30
2018-09-10T09:26:36.328Z,15.00
2018-09-10T09:29:06.009Z,11.87
2018-09-10T09:31:35.626Z,13.73
2018-09-10T09:34:05.917Z,13.10
2018-09-10T09:36:40.694Z,18.83
2018-09-10T09:39:15.398Z,14.17
2018-09-10T09:41:51.253Z,14.33
2018-09-10T09:44:26.497Z,13.43
2018-09-10T09:46:57.067Z,13.57
2018-09-10T09:49:26.568Z,15.47
2018-09-10T09:51:56.094Z,15.33
2018-09-10T09:54:26.722Z,17.97
2018-09-10T09:56:56.814Z,14.90
2018-09-10T09:59:28.119Z,17.27
2018-09-10T10:02:02.730Z,14.80
2018-09-10T10:04:33.399Z,19.10
2018-09-10T10:07:02.921Z,14.57
2018-09-10T10:09:32.463Z,16.13
2018-09-10T10:12:07.161Z,15.73
2018-09-10T10:14:36.668Z,15.73
2018-09-10T10:17:06.215Z,15.10
2018-09-10T10:19:35.816Z,14.50
2018-09-10T10:22:05.357Z,11.90
2018-09-10T10:24:34.907Z,12.97
2018-09-10T10:27:04.467Z,11.20
2018-09-10T10:29:33.881Z,14.43
2018-09-10T10:32:03.385Z,9.70
2018-09-10T10:34:33.326Z,9.77
2018-09-10T10:37:03.008Z,11.13
2018-09-10T10:39:32.548Z,12.83
2018-09-10T10:42:03.032Z,11.93
2018-09-10T10:44:32.626Z,13.67
2018-09-10T10:47:02.169Z,10.10
2018-09-10T10:49:31.723Z,13.00
2018-09-10T10:52:01.294Z,10.10
2018-09-10T10:54:30.792Z,9.87
2018-09-10T10:57:00.295Z,9.70
2018-09-10T10:59:29.888Z,11.30
2018-09-10T11:01:59.448Z,8.90
2018-09-10T11:04:29.643Z,9.23
2018-09-10T11:07:00.163Z,10.47
2018-09-10T11:09:29.684Z,12.30
2018-09-10T11:11:59.219Z,13.47
2018-09-10T11:14:28.624Z,12.63
2018-09-10T11:16:58.218Z,18.07
2018-09-10T11:19:27.844Z,13.37
2018-09-10T11:21:58.358Z,11.00
2018-09-10T11:24:29.014Z,9.87
2018-09-10T11:26:58.455Z,17.37
2018-09-10T11:29:27.907Z,13.07
2018-09-10T11:31:57.702Z,7.37
2018-09-10T11:34:27.164Z,9.03
2018-09-10T11:36:56.662Z,10.50
2018-09-10T11:39:26.200Z,9.90
2018-09-10T11:41:55.813Z,7.83
2018-09-10T11:44:25.314Z,7.40
2018-09-10T11:46:54.911Z,12.33
2018-09-10T11:49:25.034Z,7.37
2018-09-10T11:51:54.631Z,9.40
2018-09-10T11:54:24.221Z,6.93
2018-09-10T11:56:53.791Z,11.43
2018-09-10T11:59:24.179Z,7.80
2018-09-10T12:01:53.734Z,7.57
2018-09-10T12:04:23.291Z,39.23
2018-09-10T12:06:52.836Z,12.67
2018-09-10T12:09:22.265Z,16.33
2018-09-10T12:11:51.763Z,10.33
2018-09-10T12:14:21.565Z,11.90
2018-09-10T12:16:51.139Z,9.17
2018-09-10T12:19:20.716Z,8.90
2018-09-10T12:21:50.355Z,8.77
2018-09-10T12:24:19.817Z,8.87
2018-09-10T12:26:49.308Z,11.67
2018-09-10T12:29:18.864Z,7.40
2018-09-10T12:31:48.474Z,10.00
2018-09-10T12:34:17.937Z,11.37
2018-09-10T12:36:47.370Z,8.77
2018-09-10T12:39:16.850Z,8.03
2018-09-10T12:41:46.279Z,8.57
2018-09-10T12:44:16.831Z,7.83
2018-09-10T12:46:46.388Z,9.33
2018-09-10T12:49:15.836Z,7.30
2018-09-10T12:51:45.284Z,7.57
2018-09-10T12:54:14.721Z,7.93
2018-09-10T12:56:44.238Z,7.57
2018-09-10T12:59:13.733Z,7.60
2018-09-10T13:01:43.265Z,5.17
2018-09-10T13:04:14.804Z,6.70
2018-09-10T13:06:44.397Z,9.93
2018-09-10T13:09:14.272Z,6.07
2018-09-10T13:11:44.885Z,4.20
2018-09-10T13:14:14.367Z,3.97
2018-09-10T13:16:43.965Z,4.67
2018-09-10T13:19:13.447Z,4.77
2018-09-10T13:21:44.217Z,7.50
2018-09-10T13:24:13.872Z,6.13
2018-09-10T13:26:43.724Z,6.40
2018-09-10T13:29:13.225Z,9.63
2018-09-10T13:31:42.763Z,10.80
2018-09-10T13:34:13.293Z,7.80
2018-09-10T13:36:42.888Z,7.33
2018-09-10T13:39:12.370Z,5.23
2018-09-10T13:41:41.904Z,10.47
2018-09-10T13:44:12.160Z,8.07
2018-09-10T13:46:41.664Z,9.07
2018-09-10T13:49:11.167Z,7.83
2018-09-10T13:51:41.805Z,5.20
2018-09-10T13:54:11.768Z,5.63
2018-09-10T13:56:42.228Z,5.47
2018-09-10T13:59:11.767Z,6.57
2018-09-10T14:01:41.322Z,5.17
2018-09-10T14:04:10.798Z,6.10
2018-09-10T14:06:40.524Z,5.27
2018-09-10T14:09:10.232Z,5.80
2018-09-10T14:11:40.750Z,4.20
2018-09-10T14:14:10.264Z,4.63
2018-09-10T14:16:40.017Z,4.43
2018-09-10T14:19:09.471Z,6.37
2018-09-10T14:21:38.940Z,7.83
2018-09-10T14:24:08.458Z,6.27
2018-09-10T14:26:38.774Z,5.00
2018-09-10T14:29:08.448Z,7.50
2018-09-10T14:31:38.296Z,3.80
2018-09-10T14:34:08.307Z,11.37
2018-09-10T14:36:37.924Z,6.20
2018-09-10T14:39:08.372Z,6.23
2018-09-10T14:41:38.216Z,6.53
2018-09-10T14:44:08.222Z,4.07
2018-09-10T14:46:38.355Z,5.67
2018-09-10T14:49:08.117Z,5.87
2018-09-10T14:51:37.789Z,6.57
2018-09-10T14:54:08.045Z,3.90
2018-09-10T14:56:37.568Z,4.73
2018-09-10T14:59:07.071Z,4.53
2018-09-10T15:01:36.602Z,4.83
2018-09-10T15:04:06.955Z,4.23
2018-09-10T15:06:36.479Z,7.23
2018-09-10T15:09:07.710Z,5.90
2018-09-10T15:11:37.313Z,9.13
2018-09-10T15:14:06.862Z,6.57
2018-09-10T15:16:36.422Z,4.47
2018-09-10T15:19:06.201Z,4.10
2018-09-10T15:21:35.629Z,6.63
2018-09-10T15:24:05.126Z,4.23
2018-09-10T15:26:35.671Z,4.53
2018-09-10T15:29:05.311Z,5.67
2018-09-10T15:31:35.029Z,6.43
2018-09-10T15:34:05.498Z,3.80
2018-09-10T15:36:35.064Z,4.93
2018-09-10T15:39:05.986Z,6.87
2018-09-10T15:41:35.525Z,5.20
2018-09-10T15:44:05.039Z,4.43
2018-09-10T15:46:34.727Z,8.17
2018-09-10T15:49:04.563Z,6.27
2018-09-10T15:51:33.987Z,3.90
2018-09-10T15:54:04.989Z,5.17
2018-09-10T15:56:35.453Z,3.83
2018-09-10T15:59:05.080Z,5.37
2018-09-10T16:01:34.544Z,3.93
2018-09-10T16:04:04.121Z,3.87
2018-09-10T16:06:37.917Z,4.53
2018-09-10T16:09:08.919Z,6.27
2018-09-10T16:11:38.391Z,4.40
2018-09-10T16:14:08.211Z,3.83
2018-09-10T16:16:38.588Z,3.83
2018-09-10T16:19:09.064Z,5.57
2018-09-10T16:21:40.381Z,4.30
2018-09-10T16:24:10.238Z,5.70
2018-09-10T16:26:39.916Z,6.90
2018-09-10T16:29:09.402Z,8.80
2018-09-10T16:31:38.889Z,13.23
2018-09-10T16:34:08.427Z,17.87
2018-09-10T16:36:38.096Z,29.67
2018-09-10T16:39:09.457Z,13.63
2018-09-10T16:41:40.076Z,11.03
2018-09-10T16:44:09.534Z,9.63
2018-09-10T16:46:39.448Z,9.47
2018-09-10T16:49:09.046Z,14.23
2018-09-10T16:51:40.982Z,13.03
2018-09-10T16:54:11.440Z,10.87
2018-09-10T16:56:41.845Z,8.03
2018-09-10T16:59:11.504Z,7.70
2018-09-10T17:01:43.838Z,5.97
2018-09-10T17:04:13.415Z,8.13
2018-09-10T17:06:43.336Z,8.80
2018-09-10T17:09:12.934Z,8.73
2018-09-10T17:11:42.755Z,5.97
2018-09-10T17:14:12.243Z,8.83
2018-09-10T17:16:41.725Z,5.23
2018-09-10T17:19:12.283Z,7.33
2018-09-10T17:21:41.971Z,6.83
2018-09-10T17:24:11.477Z,6.27
2018-09-10T17:26:41.084Z,8.07
2018-09-10T17:29:10.630Z,7.53
2018-09-10T17:31:42.188Z,5.53
2018-09-10T17:34:11.943Z,6.70
2018-09-10T17:36:42.380Z,9.17
2018-09-10T17:39:11.949Z,6.77
2018-09-10T17:41:41.577Z,5.13
2018-09-10T17:44:11.216Z,6.60
2018-09-10T17:46:40.716Z,6.80
2018-09-10T17:49:11.200Z,9.43
2018-09-10T17:51:41.743Z,5.30
2018-09-10T17:54:11.579Z,5.70
2018-09-10T17:56:41.150Z,8.43
2018-09-10T17:59:12.800Z,6.17
2018-09-10T18:01:42.371Z,8.73
2018-09-10T18:04:12.396Z,6.90
2018-09-10T18:06:45.806Z,5.93
2018-09-10T18:09:15.291Z,6.97
2018-09-10T18:11:46.066Z,5.73
2018-09-10T18:14:15.515Z,4.97
2018-09-10T18:16:45.007Z,6.30
2018-09-10T18:19:15.157Z,5.23
2018-09-10T18:21:44.695Z,6.23
2018-09-10T18:24:14.251Z,5.97
2018-09-10T18:26:43.790Z,5.50
2018-09-10T18:29:13.360Z,12.67
2018-09-10T18:31:42.902Z,6.43
2018-09-10T18:34:12.576Z,5.43
2018-09-10T18:36:42.001Z,6.60
2018-09-10T18:39:11.966Z,5.83
2018-09-10T18:41:41.455Z,8.90
2018-09-10T18:44:11.905Z,6.33
2018-09-10T18:46:41.991Z,7.27
2018-09-10T18:49:11.550Z,5.13
2018-09-10T18:51:43.145Z,6.97
2018-09-10T18:54:14.547Z,6.67
2018-09-10T18:56:44.318Z,5.93
2018-09-10T18:59:13.812Z,7.63
2018-09-10T19:01:43.331Z,8.00
2018-09-10T19:04:12.988Z,5.97
2018-09-10T19:06:42.420Z,6.90
2018-09-10T19:09:12.694Z,8.47
2018-09-10T19:11:42.264Z,10.53
2018-09-10T19:14:11.844Z,8.23
2018-09-10T19:16:41.306Z,5.97
2018-09-10T19:19:12.530Z,6.17
2018-09-10T19:21:43.087Z,7.43
2018-09-10T19:24:14.829Z,5.83
2018-09-10T19:26:44.581Z,7.67
2018-09-10T19:29:14.166Z,8.73
2018-09-10T19:31:44.688Z,8.67
2018-09-10T19:34:15.228Z,6.10
2018-09-10T19:36:44.874Z,5.67
2018-09-10T19:39:14.461Z,5.63
2018-09-10T19:41:44.978Z,7.00
2018-09-10T19:44:15.130Z,6.03
2018-09-10T19:46:44.915Z,6.83
2018-09-10T19:49:14.419Z,6.03
2018-09-10T19:51:48.955Z,7.27
2018-09-10T19:54:18.732Z,10.90
2018-09-10T19:56:48.995Z,5.10
2018-09-10T19:59:18.584Z,8.07
2018-09-10T20:01:48.085Z,8.53
2018-09-10T20:04:18.286Z,9.20
2018-09-10T20:06:47.851Z,14.63
2018-09-10T20:09:17.392Z,13.23
2018-09-10T20:11:46.916Z,9.10
2018-09-10T20:14:16.564Z,10.33
2018-09-10T20:16:46.089Z,6.27
2018-09-10T20:19:18.180Z,8.17
2018-09-10T20:21:47.583Z,6.23
2018-09-10T20:24:18.057Z,5.83
2018-09-10T20:26:47.509Z,10.43
2018-09-10T20:29:17.018Z,5.97
2018-09-10T20:31:47.190Z,6.23
2018-09-10T20:34:16.742Z,7.83
2018-09-10T20:36:46.494Z,9.93
2018-09-10T20:39:16.037Z,5.20
2018-09-10T20:41:45.535Z,7.60
2018-09-10T20:44:14.957Z,6.47
2018-09-10T20:46:44.396Z,5.43
2018-09-10T20:49:13.773Z,6.03
2018-09-10T20:51:43.164Z,6.07
2018-09-10T20:54:12.610Z,7.70
2018-09-10T20:56:42.075Z,8.50
2018-09-10T20:59:11.555Z,7.60
2018-09-10T21:01:41.049Z,6.87
2018-09-10T21:04:10.450Z,5.40
2018-09-10T21:06:39.927Z,8.20
2018-09-10T21:09:10.159Z,6.47
2018-09-10T21:11:39.702Z,7.10
2018-09-10T21:14:09.169Z,6.43
2018-09-10T21:16:38.732Z,6.50
2018-09-10T21:19:08.336Z,8.13
2018-09-10T21:21:37.917Z,7.13
2018-09-10T21:24:07.421Z,7.73
2018-09-10T21:26:36.931Z,7.27
2018-09-10T21:29:06.377Z,6.37
2018-09-10T21:31:36.361Z,8.17
2018-09-10T21:34:07.323Z,6.90
2018-09-10T21:36:36.772Z,8.50
2018-09-10T21:39:07.986Z,5.83
2018-09-10T21:41:37.588Z,8.90
2018-09-10T21:44:07.548Z,8.90
2018-09-10T21:46:37.788Z,6.67
2018-09-10T21:49:07.817Z,5.57
2018-09-10T21:51:37.434Z,8.37
2018-09-10T21:54:06.948Z,6.70
2018-09-10T21:56:36.550Z,8.47
2018-09-10T21:59:06.073Z,6.10
2018-09-10T22:01:35.648Z,7.60
2018-09-10T22:04:05.153Z,5.47
2018-09-10T22:06:34.593Z,7.40
2018-09-10T22:09:05.090Z,8.77
2018-09-10T22:11:38.504Z,6.50
2018-09-10T22:14:08.758Z,7.93
2018-09-10T22:16:38.785Z,8.50
2018-09-10T22:19:08.310Z,6.93
2018-09-10T22:21:37.811Z,6.43
2018-09-10T22:24:07.313Z,10.10
2018-09-10T22:26:36.871Z,8.70
2018-09-10T22:29:08.597Z,6.63
2018-09-10T22:31:38.200Z,6.07
2018-09-10T22:34:07.628Z,8.80
2018-09-10T22:36:37.202Z,6.10
2018-09-10T22:39:09.560Z,5.73
2018-09-10T22:41:39.121Z,6.43
2018-09-10T22:44:08.603Z,7.07
2018-09-10T22:46:38.119Z,8.07
2018-09-10T22:49:08.637Z,5.03
2018-09-10T22:51:38.827Z,6.37
2018-09-10T22:54:08.697Z,7.47
2018-09-10T22:56:38.538Z,7.50
2018-09-10T22:59:07.952Z,5.40
2018-09-10T23:01:37.453Z,5.63
2018-09-10T23:04:06.952Z,5.70
2018-09-10T23:06:36.391Z,5.53
2018-09-10T23:09:07.701Z,6.47
2018-09-10T23:11:37.518Z,8.07
2018-09-10T23:14:07.131Z,5.37
2018-09-10T23:16:36.637Z,6.13
2018-09-10T23:19:06.336Z,5.50
2018-09-10T23:21:35.786Z,5.03
2018-09-10T23:24:05.350Z,5.80
2018-09-10T23:26:34.850Z,7.57
2018-09-10T23:29:04.458Z,7.00
2018-09-10T23:31:33.941Z,7.73
2018-09-10T23:34:03.473Z,5.20
2018-09-10T23:36:35.454Z,6.07
2018-09-10T23:39:07.336Z,5.37
2018-09-10T23:41:38.786Z,6.80
2018-09-10T23:44:08.594Z,6.10
2018-09-10T23:46:38.063Z,5.90
2018-09-10T23:49:07.512Z,5.50
2018-09-10T23:51:37.009Z,7.00
2018-09-10T23:54:07.460Z,5.67
2018-09-10T23:56:37.259Z,8.73
2018-09-10T23:59:07.097Z,7.60
